sensor_id;sensor_type;location;lat;lon;timestamp;pressure;altitude;pressure_sealevel;temperature;humidity
57894;BME280;43710;47.460;19.034;2023-03-16T05:00:46;100775.38;;;5.93;56.84
57894;BME280;43710;47.460;19.034;2023-03-16T05:03:51;100775.38;;;5.93;56.84
57894;BME280;43710;47.460;19.034;2023-03-16T05:06:54;100781.91;;;5.45;51.71
57894;BME280;43710;47.460;19.034;2023-03-16T05:09:57;100790.56;;;5.52;50.37
57894;BME280;43710;47.460;19.034;2023-03-16T05:13:00;100791.66;;;5.68;63.46
57894;BME280;43710;47.460;19.034;2023-03-16T05:16:03;100798.63;;;5.97;54.50
57894;BME280;43710;47.460;19.034;2023-03-16T05:19:06;100793.37;;;6.02;61.35
57894;BME280;43710;47.460;19.034;2023-03-16T05:22:08;100804.62;;;5.93;48.87
57894;BME280;43710;47.460;19.034;2023-03-16T05:25:11;100802.81;;;5.93;51.61
57894;BME280;43710;47.460;19.034;2023-03-16T05:28:17;100802.09;;;5.86;49.57
57894;BME280;43710;47.460;19.034;2023-03-16T05:31:19;100810.72;;;5.76;53.07
57894;BME280;43710;47.460;19.034;2023-03-16T05:34:22;100808.12;;;5.93;57.62
57894;BME280;43710;47.460;19.034;2023-03-16T05:37:25;100811.25;;;5.90;48.61
57894;BME280;43710;47.460;19.034;2023-03-16T05:40:28;100811.53;;;5.77;50.23
57894;BME280;43710;47.460;19.034;2023-03-16T05:43:31;100818.16;;;5.91;49.42
57894;BME280;43710;47.460;19.034;2023-03-16T05:46:36;100812.81;;;5.74;49.18
57894;BME280;43710;47.460;19.034;2023-03-16T05:49:38;100818.50;;;6.06;59.05
57894;BME280;43710;47.460;19.034;2023-03-16T05:52:43;100817.44;;;6.07;49.95
57894;BME280;43710;47.460;19.034;2023-03-16T05:55:53;100821.69;;;6.08;48.54
57894;BME280;43710;47.460;19.034;2023-03-16T05:58:58;100819.91;;;5.97;51.00
57894;BME280;43710;47.460;19.034;2023-03-16T06:02:03;100826.84;;;5.98;48.37
57894;BME280;43710;47.460;19.034;2023-03-16T06:05:06;100837.37;;;6.22;69.63
57894;BME280;43710;47.460;19.034;2023-03-16T06:08:11;100835.94;;;6.31;49.84
57894;BME280;43710;47.460;19.034;2023-03-16T06:11:16;100844.03;;;6.53;49.43
57894;BME280;43710;47.460;19.034;2023-03-16T06:14:19;100848.72;;;6.63;51.10
57894;BME280;43710;47.460;19.034;2023-03-16T06:17:23;100849.50;;;6.29;55.75
57894;BME280;43710;47.460;19.034;2023-03-16T06:20:26;100846.13;;;6.68;49.58
57894;BME280;43710;47.460;19.034;2023-03-16T06:23:29;100855.31;;;6.94;63.32
57894;BME280;43710;47.460;19.034;2023-03-16T06:26:32;100856.94;;;6.44;52.71
57894;BME280;43710;47.460;19.034;2023-03-16T06:29:35;100866.31;;;6.47;47.75
57894;BME280;43710;47.460;19.034;2023-03-16T06:32:37;100866.44;;;6.23;48.74
57894;BME280;43710;47.460;19.034;2023-03-16T06:35:43;100870.69;;;6.24;47.83
57894;BME280;43710;47.460;19.034;2023-03-16T06:38:46;100876.69;;;6.48;47.56
57894;BME280;43710;47.460;19.034;2023-03-16T06:41:48;100886.81;;;6.46;45.33
57894;BME280;43710;47.460;19.034;2023-03-16T06:44:51;100880.84;;;6.56;46.91
57894;BME280;43710;47.460;19.034;2023-03-16T06:47:54;100887.16;;;6.67;46.74
57894;BME280;43710;47.460;19.034;2023-03-16T06:50:56;100897.97;;;6.94;53.34
57894;BME280;43710;47.460;19.034;2023-03-16T06:53:59;100888.41;;;6.47;44.80
57894;BME280;43710;47.460;19.034;2023-03-16T06:57:03;100901.31;;;6.55;47.46
57894;BME280;43710;47.460;19.034;2023-03-16T07:00:07;100894.56;;;6.65;46.37
57894;BME280;43710;47.460;19.034;2023-03-16T07:03:12;100907.03;;;6.76;59.20
57894;BME280;43710;47.460;19.034;2023-03-16T07:06:17;100905.72;;;7.12;46.24
57894;BME280;43710;47.460;19.034;2023-03-16T07:09:22;100910.38;;;7.05;46.38
57894;BME280;43710;47.460;19.034;2023-03-16T07:12:26;100914.44;;;6.74;46.85
57894;BME280;43710;47.460;19.034;2023-03-16T07:15:29;100916.28;;;6.73;46.29
57894;BME280;43710;47.460;19.034;2023-03-16T07:18:34;100924.13;;;6.80;43.57
57894;BME280;43710;47.460;19.034;2023-03-16T07:21:44;100921.78;;;6.83;50.36
57894;BME280;43710;47.460;19.034;2023-03-16T07:24:51;100916.59;;;7.27;45.72
57894;BME280;43710;47.460;19.034;2023-03-16T07:28:02;100928.09;;;6.94;43.87
57894;BME280;43710;47.460;19.034;2023-03-16T07:31:07;100935.75;;;6.91;44.63
57894;BME280;43710;47.460;19.034;2023-03-16T07:34:13;100939.31;;;6.96;43.40
57894;BME280;43710;47.460;19.034;2023-03-16T07:37:18;100943.28;;;7.11;43.82
57894;BME280;43710;47.460;19.034;2023-03-16T07:40:30;100945.19;;;6.98;42.87
57894;BME280;43710;47.460;19.034;2023-03-16T07:43:40;100941.91;;;6.91;43.59
57894;BME280;43710;47.460;19.034;2023-03-16T07:46:44;100940.94;;;7.14;57.31
57894;BME280;43710;47.460;19.034;2023-03-16T07:49:49;100938.97;;;7.43;44.15
57894;BME280;43710;47.460;19.034;2023-03-16T07:52:52;100945.94;;;7.11;42.48
57894;BME280;43710;47.460;19.034;2023-03-16T07:55:58;100938.09;;;7.21;51.00
57894;BME280;43710;47.460;19.034;2023-03-16T07:59:04;100944.50;;;7.20;45.84
57894;BME280;43710;47.460;19.034;2023-03-16T08:02:15;100942.41;;;7.61;54.13
57894;BME280;43710;47.460;19.034;2023-03-16T08:05:22;100948.09;;;7.47;44.52
57894;BME280;43710;47.460;19.034;2023-03-16T08:08:32;100949.75;;;7.92;50.24
57894;BME280;43710;47.460;19.034;2023-03-16T08:11:37;100952.59;;;7.86;41.62
57894;BME280;43710;47.460;19.034;2023-03-16T08:14:41;100956.16;;;7.52;41.73
57894;BME280;43710;47.460;19.034;2023-03-16T08:17:51;100956.41;;;7.51;41.69
57894;BME280;43710;47.460;19.034;2023-03-16T08:20:56;100968.47;;;7.37;43.43
57894;BME280;43710;47.460;19.034;2023-03-16T08:24:01;100966.22;;;7.45;43.91
57894;BME280;43710;47.460;19.034;2023-03-16T08:27:05;100976.09;;;7.67;47.89
57894;BME280;43710;47.460;19.034;2023-03-16T08:30:13;100978.44;;;8.02;46.03
57894;BME280;43710;47.460;19.034;2023-03-16T08:33:25;100973.56;;;8.21;46.32
57894;BME280;43710;47.460;19.034;2023-03-16T08:36:34;100980.88;;;8.75;66.95
57894;BME280;43710;47.460;19.034;2023-03-16T08:39:40;100978.69;;;9.04;47.94
57894;BME280;43710;47.460;19.034;2023-03-16T08:42:44;100981.03;;;8.41;42.10
57894;BME280;43710;47.460;19.034;2023-03-16T08:45:48;100970.22;;;8.31;43.03
57894;BME280;43710;47.460;19.034;2023-03-16T08:48:54;100971.34;;;8.13;42.96
57894;BME280;43710;47.460;19.034;2023-03-16T08:51:58;100974.22;;;8.28;42.24
57894;BME280;43710;47.460;19.034;2023-03-16T08:55:04;100968.19;;;8.16;41.54
57894;BME280;43710;47.460;19.034;2023-03-16T08:58:09;100980.66;;;8.32;42.14
57894;BME280;43710;47.460;19.034;2023-03-16T09:01:14;100985.75;;;8.34;42.71
57894;BME280;43710;47.460;19.034;2023-03-16T09:04:19;100986.63;;;8.17;41.87
57894;BME280;43710;47.460;19.034;2023-03-16T09:07:22;100989.22;;;8.34;41.76
57894;BME280;43710;47.460;19.034;2023-03-16T09:10:28;100988.72;;;8.86;60.13
57894;BME280;43710;47.460;19.034;2023-03-16T09:13:36;100987.19;;;8.96;45.36
57894;BME280;43710;47.460;19.034;2023-03-16T09:16:40;100999.59;;;9.07;49.65
57894;BME280;43710;47.460;19.034;2023-03-16T09:19:45;100995.94;;;8.59;40.83
57894;BME280;43710;47.460;19.034;2023-03-16T09:22:54;101005.19;;;8.29;45.08
57894;BME280;43710;47.460;19.034;2023-03-16T09:26:02;100987.91;;;8.59;41.41
57894;BME280;43710;47.460;19.034;2023-03-16T09:29:07;100991.38;;;8.86;46.21
57894;BME280;43710;47.460;19.034;2023-03-16T09:32:09;100994.06;;;8.59;42.36
57894;BME280;43710;47.460;19.034;2023-03-16T09:35:13;101002.94;;;8.38;39.26
57894;BME280;43710;47.460;19.034;2023-03-16T09:38:17;101003.72;;;8.87;46.46
57894;BME280;43710;47.460;19.034;2023-03-16T09:41:44;101012.28;;;9.22;56.91
57894;BME280;43710;47.460;19.034;2023-03-16T09:48:01;101010.03;;;9.40;40.38
57894;BME280;43710;47.460;19.034;2023-03-16T09:51:11;101010.34;;;9.49;44.17
57894;BME280;43710;47.460;19.034;2023-03-16T09:55:06;101004.59;;;8.98;42.12
57894;BME280;43710;47.460;19.034;2023-03-16T09:58:19;101009.41;;;8.96;40.20
57894;BME280;43710;47.460;19.034;2023-03-16T10:11:03;101014.91;;;9.16;39.88
57894;BME280;43710;47.460;19.034;2023-03-16T10:14:12;101008.56;;;9.23;48.01
57894;BME280;43710;47.460;19.034;2023-03-16T10:17:35;101010.59;;;9.10;40.86
57894;BME280;43710;47.460;19.034;2023-03-16T10:20:40;101013.09;;;9.22;40.42
57894;BME280;43710;47.460;19.034;2023-03-16T10:23:46;101013.72;;;9.02;39.48
57894;BME280;43710;47.460;19.034;2023-03-16T10:26:54;101013.09;;;9.22;51.10
57894;BME280;43710;47.460;19.034;2023-03-16T10:30:06;101014.69;;;10.03;70.58
57894;BME280;43710;47.460;19.034;2023-03-16T10:33:33;101015.19;;;9.95;39.00
57894;BME280;43710;47.460;19.034;2023-03-16T10:36:39;101009.59;;;9.54;35.99
57894;BME280;43710;47.460;19.034;2023-03-16T10:39:42;101015.78;;;9.59;57.54
57894;BME280;43710;47.460;19.034;2023-03-16T10:42:46;101012.19;;;9.86;50.26
57894;BME280;43710;47.460;19.034;2023-03-16T10:45:48;101017.41;;;10.13;37.10
57894;BME280;43710;47.460;19.034;2023-03-16T10:48:53;101006.69;;;10.13;36.16
57894;BME280;43710;47.460;19.034;2023-03-16T10:52:05;101014.09;;;9.96;40.07
57894;BME280;43710;47.460;19.034;2023-03-16T10:55:23;101007.59;;;10.29;43.27
57894;BME280;43710;47.460;19.034;2023-03-16T10:58:29;101010.91;;;10.56;54.14
57894;BME280;43710;47.460;19.034;2023-03-16T11:01:32;101006.03;;;10.43;39.53
57894;BME280;43710;47.460;19.034;2023-03-16T11:04:35;101004.00;;;10.08;36.67
57894;BME280;43710;47.460;19.034;2023-03-16T11:07:49;101002.59;;;10.53;40.98
57894;BME280;43710;47.460;19.034;2023-03-16T11:10:56;101012.03;;;10.08;35.77
57894;BME280;43710;47.460;19.034;2023-03-16T11:14:01;101006.69;;;10.13;34.96
57894;BME280;43710;47.460;19.034;2023-03-16T11:17:10;101002.41;;;10.07;32.30
57894;BME280;43710;47.460;19.034;2023-03-16T11:20:22;100995.88;;;9.93;35.85
57894;BME280;43710;47.460;19.034;2023-03-16T11:23:31;100997.69;;;9.77;33.36
57894;BME280;43710;47.460;19.034;2023-03-16T11:26:36;100999.59;;;9.81;33.40
57894;BME280;43710;47.460;19.034;2023-03-16T11:29:48;100987.38;;;10.06;34.03
57894;BME280;43710;47.460;19.034;2023-03-16T11:32:55;100991.53;;;10.34;40.17
57894;BME280;43710;47.460;19.034;2023-03-16T11:56:27;100972.84;;;10.85;37.28
57894;BME280;43710;47.460;19.034;2023-03-16T11:59:35;100968.59;;;10.99;33.81
57894;BME280;43710;47.460;19.034;2023-03-16T12:10:09;100955.94;;;11.15;50.09
57894;BME280;43710;47.460;19.034;2023-03-16T12:13:50;100953.81;;;11.17;37.33
57894;BME280;43710;47.460;19.034;2023-03-16T12:20:27;100955.97;;;10.85;36.02
57894;BME280;43710;47.460;19.034;2023-03-16T12:26:52;100964.56;;;10.97;37.40
57894;BME280;43710;47.460;19.034;2023-03-16T12:43:30;100958.66;;;11.20;37.14
57894;BME280;43710;47.460;19.034;2023-03-16T12:47:02;100957.81;;;11.40;39.49
57894;BME280;43710;47.460;19.034;2023-03-16T12:50:12;100955.06;;;11.61;49.60
57894;BME280;43710;47.460;19.034;2023-03-16T12:57:07;100956.09;;;11.75;31.60
57894;BME280;43710;47.460;19.034;2023-03-16T13:00:12;100950.56;;;11.25;26.75
57894;BME280;43710;47.460;19.034;2023-03-16T13:03:19;100950.88;;;11.14;27.62
57894;BME280;43710;47.460;19.034;2023-03-16T13:06:23;100946.00;;;11.31;39.77
57894;BME280;43710;47.460;19.034;2023-03-16T13:09:27;100945.22;;;11.31;43.75
57894;BME280;43710;47.460;19.034;2023-03-16T13:12:35;100956.72;;;11.41;27.50
57894;BME280;43710;47.460;19.034;2023-03-16T13:15:39;100949.78;;;11.15;25.58
57894;BME280;43710;47.460;19.034;2023-03-16T13:18:42;100955.44;;;11.13;27.06
57894;BME280;43710;47.460;19.034;2023-03-16T13:21:46;100949.78;;;10.84;26.55
57894;BME280;43710;47.460;19.034;2023-03-16T13:28:01;100940.94;;;10.78;26.83
57894;BME280;43710;47.460;19.034;2023-03-16T13:31:21;100941.75;;;10.79;27.05
57894;BME280;43710;47.460;19.034;2023-03-16T13:34:28;100954.06;;;10.75;26.69
57894;BME280;43710;47.460;19.034;2023-03-16T13:37:31;100945.25;;;10.79;29.35
57894;BME280;43710;47.460;19.034;2023-03-16T13:40:34;100958.66;;;11.10;40.76
57894;BME280;43710;47.460;19.034;2023-03-16T13:43:42;100956.50;;;11.33;34.84
57894;BME280;43710;47.460;19.034;2023-03-16T13:46:47;100958.06;;;11.49;34.45
57894;BME280;43710;47.460;19.034;2023-03-16T13:49:55;100955.94;;;11.25;28.44
57894;BME280;43710;47.460;19.034;2023-03-16T13:53:01;100953.25;;;11.41;42.55
57894;BME280;43710;47.460;19.034;2023-03-16T13:56:06;100946.00;;;11.31;27.69
57894;BME280;43710;47.460;19.034;2023-03-16T13:59:08;100951.91;;;11.28;28.32
57894;BME280;43710;47.460;19.034;2023-03-16T14:02:19;100943.06;;;11.43;45.48
57894;BME280;43710;47.460;19.034;2023-03-16T14:05:29;100953.28;;;11.05;24.15
57894;BME280;43710;47.460;19.034;2023-03-16T14:08:33;100948.97;;;11.29;32.47
57894;BME280;43710;47.460;19.034;2023-03-16T14:11:35;100939.56;;;11.22;27.21
57894;BME280;43710;47.460;19.034;2023-03-16T14:14:39;100944.12;;;11.32;26.35
57894;BME280;43710;47.460;19.034;2023-03-16T14:17:42;100957.81;;;11.40;27.27
57894;BME280;43710;47.460;19.034;2023-03-16T14:20:45;100952.16;;;11.47;31.71
57894;BME280;43710;47.460;19.034;2023-03-16T14:24:00;100949.50;;;11.32;28.68
57894;BME280;43710;47.460;19.034;2023-03-16T14:27:17;100959.13;;;11.48;27.41
57894;BME280;43710;47.460;19.034;2023-03-16T14:30:22;100951.13;;;11.27;24.42
57894;BME280;43710;47.460;19.034;2023-03-16T14:33:29;100959.44;;;11.05;33.56
57894;BME280;43710;47.460;19.034;2023-03-16T14:36:37;100963.19;;;11.15;25.52
57894;BME280;43710;47.460;19.034;2023-03-16T14:39:40;100972.56;;;11.38;30.92
57894;BME280;43710;47.460;19.034;2023-03-16T14:42:42;100954.09;;;11.26;24.68
57894;BME280;43710;47.460;19.034;2023-03-16T14:45:45;100971.50;;;11.39;29.33
57894;BME280;43710;47.460;19.034;2023-03-16T14:48:47;100966.69;;;11.31;26.38
57894;BME280;43710;47.460;19.034;2023-03-16T14:51:53;100976.34;;;11.32;29.91
57894;BME280;43710;47.460;19.034;2023-03-16T14:54:57;100965.06;;;11.40;36.80
57894;BME280;43710;47.460;19.034;2023-03-16T14:58:00;100972.06;;;11.15;28.12
57894;BME280;43710;47.460;19.034;2023-03-16T15:01:03;100972.84;;;11.05;27.22
57894;BME280;43710;47.460;19.034;2023-03-16T15:04:05;100981.47;;;10.97;27.56
57894;BME280;43710;47.460;19.034;2023-03-16T15:07:22;100978.50;;;10.94;27.26
57894;BME280;43710;47.460;19.034;2023-03-16T15:10:30;100977.72;;;10.93;24.85
57894;BME280;43710;47.460;19.034;2023-03-16T15:13:34;100968.31;;;11.06;34.37
57894;BME280;43710;47.460;19.034;2023-03-16T15:16:42;100979.56;;;11.08;24.59
57894;BME280;43710;47.460;19.034;2023-03-16T15:19:45;100972.34;;;10.83;24.64
57894;BME280;43710;47.460;19.034;2023-03-16T15:22:47;100981.19;;;10.84;28.81
57894;BME280;43710;47.460;19.034;2023-03-16T15:25:52;100975.81;;;11.04;32.64
57894;BME280;43710;47.460;19.034;2023-03-16T15:28:59;100980.13;;;11.36;44.43
57894;BME280;43710;47.460;19.034;2023-03-16T15:32:02;100976.63;;;11.30;36.19
57894;BME280;43710;47.460;19.034;2023-03-16T15:35:05;100983.59;;;11.46;29.44
57894;BME280;43710;47.460;19.034;2023-03-16T15:38:13;100984.62;;;11.61;44.28
57894;BME280;43710;47.460;19.034;2023-03-16T15:41:16;100983.53;;;11.62;29.48
57894;BME280;43710;47.460;19.034;2023-03-16T15:44:19;100988.69;;;11.43;22.92
57894;BME280;43710;47.460;19.034;2023-03-16T15:47:21;100996.44;;;11.55;31.06
57894;BME280;43710;47.460;19.034;2023-03-16T15:50:24;100996.22;;;11.31;24.60
57894;BME280;43710;47.460;19.034;2023-03-16T15:53:39;101005.88;;;11.37;25.77
57894;BME280;43710;47.460;19.034;2023-03-16T15:56:43;101009.09;;;11.28;26.15
57894;BME280;43710;47.460;19.034;2023-03-16T15:59:56;101010.16;;;11.17;24.98
57894;BME280;43710;47.460;19.034;2023-03-16T16:03:00;101009.34;;;11.12;27.82
57894;BME280;43710;47.460;19.034;2023-03-16T16:06:07;101019.28;;;10.91;25.21
57894;BME280;43710;47.460;19.034;2023-03-16T16:09:10;101018.44;;;10.85;25.65
57894;BME280;43710;47.460;19.034;2023-03-16T16:12:13;101020.09;;;11.07;29.77
57894;BME280;43710;47.460;19.034;2023-03-16T16:15:36;101031.62;;;10.97;29.56
57894;BME280;43710;47.460;19.034;2023-03-16T16:18:39;101024.09;;;10.94;26.49
57894;BME280;43710;47.460;19.034;2023-03-16T16:21:42;101031.59;;;10.92;28.33
57894;BME280;43710;47.460;19.034;2023-03-16T16:24:45;101038.06;;;10.91;26.83
57894;BME280;43710;47.460;19.034;2023-03-16T16:27:48;101041.81;;;10.95;34.45
57894;BME280;43710;47.460;19.034;2023-03-16T16:30:51;101054.19;;;11.21;31.75
57894;BME280;43710;47.460;19.034;2023-03-16T16:33:53;101054.72;;;11.28;28.49
57894;BME280;43710;47.460;19.034;2023-03-16T16:36:56;101057.91;;;11.00;26.03
57894;BME280;43710;47.460;19.034;2023-03-16T16:39:59;101061.63;;;10.78;24.19
